Weather at La Guardia Airport

Public forecast

Using degrees Fahrenheit for public forecast. Weather courtesy of forecast.io.

Current aviation weather report (METAR) for La Guardia Airport

Retrieved 2021/10/22 05:51 UTC (30 minutes ago):

KLGA 220551Z 19010KT 10SM SCT110 19/12 A2977 RMK AO2 SLP082 T01890122 10211 20189 57022

Aviation forecast (TAF) for La Guardia Airport

Retrieved 2021/10/22 06:22 UTC (0 seconds ago):

TAF KLGA 220520Z 2206/2312 21010KT P6SM SCT150 SCT250 FM220900 24009KT P6SM SCT120 SCT250 FM221500 28010KT P6SM BKN060 FM222200 32009KT P6SM BKN060 FM230000 35008KT P6SM BKN060 FM230800 02006KT P6SM BKN060